Flight Track Log - Related Links

Times and Time Zones

All times are in EDT time to prevent confusion due to time zone crossing. See the UAL5814 flight status page for this flight to view local times or setup timezone preferences in your user account.

Time Position Orientation Groundspeed Altitude Reporting Facility
EDT Latitude Longitude Course Direction KTS MPH feet Rate Location/Type
Mon 12:39:15 PM 30.4822 -87.2456 296° West 196 226 2,100  Level Jacksonville Center
Mon 12:40:15 PM 30.5439 -87.2194 20° North 234 269 3,600 1,750 Climbing Jacksonville Center
Mon 12:41:15 PM 30.6036 -87.1786 30° Northeast 263 303 5,600 1,950 Climbing Jacksonville Center
Mon 12:42:15 PM 30.6633 -87.1381 30° Northeast 283 326 7,500 2,000 Climbing Jacksonville Center
Mon 12:43:15 PM 30.7339 -87.0881 31° Northeast 283 326 9,600 1,750 Climbing Jacksonville Center
Mon 12:44:15 PM 30.8150 -87.0311 31° Northeast 301 346 11,000 1,100 Climbing Jacksonville Center
Mon 12:45:15 PM 30.9006 -86.9719 31° Northeast 324 373 11,800 1,043 Climbing Jacksonville Center
Mon 12:47:19 PM 31.0903 -86.8731 24° Northeast 373 429 14,200 1,207 Climbing Atlanta Center
Mon 12:48:19 PM 31.1914 -86.8278 21° North 378 435 15,500 1,150 Climbing Atlanta Center
Mon 12:49:19 PM 31.2906 -86.7772 24° Northeast 378 435 16,500 1,050 Climbing Atlanta Center
Mon 12:50:19 PM 31.3875 -86.7317 22° Northeast 378 435 17,600 1,000 Climbing Atlanta Center
Mon 12:51:19 PM 31.4742 -86.6856 24° Northeast 378 435 18,500 1,000 Climbing Atlanta Center
Mon 12:52:19 PM 31.5753 -86.6372 22° Northeast 384 442 19,600 1,100 Climbing Atlanta Center
Mon 12:53:19 PM 31.6764 -86.5889 22° Northeast 384 442 20,700 1,100 Climbing Atlanta Center
Mon 12:54:19 PM 31.7797 -86.5381 23° Northeast 389 448 21,800 1,100 Climbing Atlanta Center
Mon 12:55:19 PM 31.8831 -86.4872 23° Northeast 389 448 22,900 1,150 Climbing Atlanta Center
Mon 12:56:19 PM 32.0031 -86.4367 20° North 402 463 24,100 1,150 Climbing Atlanta Center
Mon 12:57:19 PM 32.0875 -86.3872 26° Northeast 396 456 25,200 1,050 Climbing Atlanta Center
Mon 12:58:19 PM 32.1906 -86.3386 22° Northeast 391 450 26,200 1,050 Climbing Atlanta Center
Mon 12:59:19 PM 32.2981 -86.2897 21° North 380 437 27,300 1,050 Climbing Atlanta Center
Mon 01:00:19 PM 32.4053 -86.2431 20° North 387 445 28,300 1,000 Climbing Atlanta Center
Mon 01:01:19 PM 32.5103 -86.2039 17° North 387 445 29,300 850 Climbing Atlanta Center
Mon 01:02:19 PM 32.6069 -86.1669 18° North 397 457 30,000 600 Climbing Atlanta Center
Mon 01:03:19 PM 32.7122 -86.1225 20° North 402 463 30,500 600 Climbing Atlanta Center
Mon 01:04:19 PM 32.8319 -86.0783 17° North 408 470 31,200 1,000 Climbing Atlanta Center
Mon 01:05:19 PM 32.9306 -86.0336 21° North 408 470 32,500 1,150 Climbing Atlanta Center
Mon 01:06:19 PM 33.0400 -85.9889 19° North 408 470 33,500 1,250 Climbing Atlanta Center
Mon 01:07:19 PM 33.1492 -85.9467 18° North 408 470 35,000 250 Climbing Atlanta Center
Mon 01:08:19 PM 33.2625 -85.8994 19° North 416 479 34,000 -350 Descending Atlanta Center
Mon 01:09:19 PM 33.3822 -85.8500 19° North 427 491 34,300 500 Climbing Atlanta Center
Mon 01:10:19 PM 33.5019 -85.8025 18° North 438 504 35,000 350 Climbing Atlanta Center
Mon 01:11:19 PM 33.6217 -85.7575 17° North 449 517 35,000  Level Atlanta Center
Mon 01:12:19 PM 33.7517 -85.7003 20° North 449 517 35,000  Level Atlanta Center
Mon 01:13:19 PM 33.8756 -85.6528 18° North 454 522 35,000  Level Atlanta Center
Mon 01:14:19 PM 33.9931 -85.6022 20° North 448 516 35,000  Level Atlanta Center
Mon 01:15:19 PM 34.1106 -85.5517 20° North 448 516 35,000  Level Atlanta Center
Mon 01:16:19 PM 34.2300 -85.5036 18° North 448 516 35,000  Level Atlanta Center
Mon 01:17:19 PM 34.3456 -85.4553 19° North 442 509 35,000  Level Atlanta Center
Mon 01:18:19 PM 34.4567 -85.4067 20° North 435 501 35,000  Level Atlanta Center
Mon 01:19:19 PM 34.5742 -85.3556 20° North 430 495 35,000  Level Atlanta Center
Mon 01:20:19 PM 34.6872 -85.3094 19° North 430 495 35,000  Level Atlanta Center
Mon 01:21:19 PM 34.8067 -85.2581 19° North 435 501 35,000  Level Atlanta Center
Mon 01:22:19 PM 34.9219 -85.2117 18° North 435 501 35,000 500 Level Atlanta Center
Mon 01:23:19 PM 35.0350 -85.1625 20° North 427 491 36,000 500 Climbing Atlanta Center
Mon 01:24:19 PM 35.1439 -85.1131 20° North 422 486 36,000  Level Atlanta Center
Mon 01:25:19 PM 35.2592 -85.0639 19° North 422 486 36,000  Level Atlanta Center
Mon 01:26:19 PM 35.3703 -85.0167 19° North 427 491 36,000  Level Atlanta Center
Mon 01:27:19 PM 35.4811 -84.9697 19° North 427 491 36,000  Level Atlanta Center
Mon 01:28:19 PM 35.5919 -84.9250 18° North 427 491 36,000  Level Atlanta Center
Mon 01:29:19 PM 35.7069 -84.9006 10° North 417 480 36,000  Level Atlanta Center
Mon 01:30:19 PM 35.8133 -84.8839 North 417 480 36,000  Level Atlanta Center
Mon 01:31:31 PM 35.9344 -84.8619 North 428 493 36,000  Level Atlanta Center
Mon 01:32:31 PM 36.0703 -84.8403 North 423 487 36,000  Level Atlanta Center
Mon 01:33:23 PM 36.1675 -84.8233 North 421 484 36,000  Level Indianapolis Center
Mon 01:34:25 PM 36.3064 -84.7997 North 420 483 36,000  Level Indianapolis Center
Mon 01:35:27 PM 36.4217 -84.7792 North 419 482 36,000  Level Indianapolis Center
Mon 01:36:29 PM 36.5347 -84.7469 13° North 417 480 36,000  Level Indianapolis Center
Mon 01:37:30 PM 36.6467 -84.7178 12° North 413 475 36,000  Level Indianapolis Center
Mon 01:38:32 PM 36.7594 -84.7203 359° North 408 470 36,000  Level Indianapolis Center
Mon 01:39:34 PM 36.8725 -84.7211 360° North 405 466 36,000  Level Indianapolis Center
Mon 01:40:36 PM 36.9847 -84.7211 360° North 405 466 36,000  Level Indianapolis Center
Mon 01:41:37 PM 37.1186 -84.7203 360° North 406 467 36,000  Level Indianapolis Center
Mon 01:42:39 PM 37.2300 -84.7208 360° North 402 463 36,000  Level Indianapolis Center
Mon 01:43:41 PM 37.3447 -84.7203 360° North 409 471 36,000  Level Indianapolis Center
Mon 01:44:43 PM 37.4564 -84.7486 349° North 408 470 36,000  Level Indianapolis Center
Mon 01:45:45 PM 37.5661 -84.7811 347° North 404 465 36,000  Level Indianapolis Center
Mon 01:46:46 PM 37.6739 -84.8142 346° North 400 460 36,000  Level Indianapolis Center
Mon 01:47:48 PM 37.7833 -84.8458 347° North 401 461 36,000  Level Indianapolis Center
Mon 01:48:50 PM 37.9136 -84.8825 347° North 408 470 36,000  Level Indianapolis Center
Mon 01:49:52 PM 38.0217 -84.9161 346° North 403 464 36,000  Level Indianapolis Center
Mon 01:50:54 PM 38.1339 -84.9475 348° North 408 470 36,000  Level Indianapolis Center
Mon 01:51:56 PM 38.2444 -84.9806 347° North 407 468 36,000  Level Indianapolis Center
Mon 01:52:58 PM 38.3533 -85.0139 347° North 402 463 36,000  Level Indianapolis Center
Mon 01:53:59 PM 38.4644 -85.0472 347° North 408 470 36,000  Level Indianapolis Center
Mon 01:55:01 PM 38.5925 -85.0872 346° North 406 467 36,000 -97 Level Indianapolis Center
Mon 01:56:03 PM 38.6944 -85.1189 346° North 410 472 35,800 -581 Descending Indianapolis Center
Mon 01:57:05 PM 38.8064 -85.1517 347° North 410 472 34,800 -1,016 Descending Indianapolis Center
Mon 01:58:07 PM 38.9317 -85.1911 346° North 398 458 33,700 -1,016 Descending Indianapolis Center
Mon 01:59:09 PM 39.0411 -85.2242 347° North 401 461 32,700 -968 Descending Indianapolis Center
Mon 02:00:11 PM 39.1542 -85.2583 347° North 412 474 31,700 -919 Descending Indianapolis Center
Mon 02:01:13 PM 39.2708 -85.2944 347° North 424 488 30,800 -823 Descending Indianapolis Center
Mon 02:02:15 PM 39.3886 -85.3306 347° North 432 497 30,000 -726 Descending Indianapolis Center
Mon 02:03:17 PM 39.5047 -85.3667 347° North 429 494 29,300 -878 Descending Indianapolis Center
Mon 02:04:18 PM 39.6422 -85.4106 346° North 435 501 28,200 -634 Descending Indianapolis Center
Mon 02:05:20 PM 39.7608 -85.4464 347° North 437 503 28,000 -145 Descending Indianapolis Center
Mon 02:06:22 PM 39.8794 -85.4833 347° North 437 503 27,900 -484 Descending Indianapolis Center
Mon 02:07:24 PM 39.9981 -85.5217 346° North 438 504 27,000 -919 Descending Indianapolis Center
Mon 02:08:26 PM 40.1167 -85.5586 347° North 437 503 26,000 -978 Descending Indianapolis Center
Mon 02:08:56 PM 40.1769 -85.5772 347° North 443 510 25,500 -989 Descending Chicago Center
Mon 02:09:57 PM 40.2981 -85.6164 346° North 447 514 24,500 -732 Descending Chicago Center
Mon 02:10:59 PM 40.3917 -85.7122 322° Northwest 433 498 24,000 -242 Descending Chicago Center
Mon 02:12:01 PM 40.4819 -85.8439 312° West 418 481 24,000  Level Chicago Center
Mon 02:13:03 PM 40.5586 -85.9589 311° West 418 481 24,000 -146 Level Chicago Center
Mon 02:14:04 PM 40.6375 -86.0786 311° West 427 491 23,700 -488 Descending Chicago Center
Mon 02:15:06 PM 40.7083 -86.1856 311° West 427 491 23,000 -339 Descending Chicago Center
Mon 02:16:08 PM 40.7847 -86.3019 311° West 419 482 23,000  Level Chicago Center
Mon 02:17:10 PM 40.8781 -86.4425 311° West 424 488 23,000 -387 Level Chicago Center
Mon 02:18:12 PM 40.9556 -86.5622 311° West 427 491 22,200 -1,268 Descending Chicago Center
Mon 02:19:13 PM 41.0322 -86.6792 311° West 420 483 20,400 -1,463 Descending Chicago Center
Mon 02:20:15 PM 41.1008 -86.7831 311° West 407 468 19,200 -1,306 Descending Chicago Center
Mon 02:21:17 PM 41.1858 -86.9150 311° West 396 456 17,700 -1,403 Descending Chicago Center
Mon 02:22:19 PM 41.2556 -87.0231 311° West 389 448 16,300 -1,355 Descending Chicago Center
Mon 02:23:21 PM 41.3242 -87.1311 310° West 386 444 14,900 -1,543 Descending Chicago Center
Mon 02:24:04 PM 41.3833 -87.2167 313° West 373 429 13,600 -1,689 Descending Chicago TRACON
Mon 02:25:04 PM 41.4500 -87.3000 317° Northwest 363 418 12,000 -1,091 Descending Chicago TRACON
Mon 02:26:27 PM 41.5567 -87.4175 321° Northwest 346 398 11,000 -417 Descending Chicago Center
Mon 02:27:28 PM 41.6286 -87.4989 320° Northwest 343 395 11,000  Level Chicago Center
Mon 02:28:30 PM 41.7033 -87.5828 320° Northwest 353 406 11,000 -124 Level Chicago Center
Mon 02:29:05 PM 41.7500 -87.6333 321° Northwest 321 369 10,800 -1,011 Descending Chicago TRACON
Mon 02:30:05 PM 41.8000 -87.7000 315° West 271 312 9,400 -1,550 Descending Chicago TRACON
Mon 02:31:05 PM 41.8833 -87.7167 352° North 289 333 7,700 -1,200 Descending Chicago TRACON
Mon 02:32:05 PM 41.9500 -87.7167 360° North 271 312 7,000 -581 Descending Chicago TRACON
Mon 02:33:40 PM 42.0631 -87.6764 15° North 282 325 6,200 -750 Descending Chicago Center
Mon 02:34:05 PM 42.1000 -87.6667 11° North 273 314 5,500 -1,553 Descending Chicago TRACON
Mon 02:35:05 PM 42.1500 -87.7333 315° West 242 278 4,000 -909 Descending Chicago TRACON
Mon 02:35:44 PM 42.1522 -87.7606 276° West 246 283 4,000 -594 Level Chicago Center
Mon 02:36:46 PM 42.0989 -87.7842 198° South 201 231 3,000 -815 Descending Chicago Center
Mon 02:37:05 PM 42.0833 -87.8000 217° Southwest 183 211 2,900 -835 Descending Chicago TRACON
Mon 02:38:05 PM 42.0500 -87.8333 217° Southwest 165 190 1,900 -800 Descending Chicago TRACON
Mon 02:39:05 PM 42.0167 -87.8667 217° Southwest 130 150 1,300 -600 Descending Chicago TRACON
Mon 02:41:00 PM 41.9817 -87.9067 290° West  Level Estimated

Login

Don't have an account? Register now (free) for customized features, flight alerts, and more!